Time,TemperatureF,DewpointF,PressureIn,WindDirection,WindDirectionDegrees,WindSpeedMPH,WindSpeedGustMPH,Humidity,HourlyPrecipIn,Conditions,Clouds,dailyrainin,SolarRadiationWatts/m^2,SoftwareType,DateUTC
2013-02-11 00:00:00,36.0,35.0,-100.00,SE,135,10.0,-999.0,94,-99.99,,,-99.99,0.000000,,2013-02-11 05:00:00,
2013-02-11 00:42:00,36.0,35.0,-100.00,SE,135,10.0,-999.0,94,-99.99,,,-99.99,0.000000,,2013-02-11 05:42:00,
2013-02-11 00:53:00,36.0,35.0,-100.00,SE,135,10.0,-999.0,94,-99.99,,,-99.99,0.000000,,2013-02-11 05:53:00,
2013-02-11 01:00:00,37.0,35.0,-100.00,SSE,157,10.0,-999.0,95,-99.99,,,-99.99,0.000000,,2013-02-11 06:00:00,
2013-02-11 01:42:00,37.0,35.0,-100.00,SSE,157,10.0,-999.0,95,-99.99,,,-99.99,0.000000,,2013-02-11 06:42:00,
2013-02-11 01:52:00,37.0,35.0,-100.00,SSE,157,10.0,-999.0,95,-99.99,,,-99.99,0.000000,,2013-02-11 06:52:00,
2013-02-11 02:00:00,37.0,36.0,-100.00,SSE,157,9.0,-999.0,96,-99.99,,,-99.99,0.000000,,2013-02-11 07:00:00,
2013-02-11 02:42:00,37.0,36.0,-100.00,SSE,157,9.0,-999.0,96,-99.99,,,-99.99,0.000000,,2013-02-11 07:42:00,
2013-02-11 02:52:00,37.0,36.0,-100.00,SSE,157,9.0,-999.0,96,-99.99,,,-99.99,0.000000,,2013-02-11 07:52:00,
2013-02-11 03:00:00,37.0,37.0,-100.00,SSE,157,6.0,-999.0,97,-99.99,,,-99.99,0.000000,,2013-02-11 08:00:00,
2013-02-11 03:42:00,37.0,37.0,-100.00,SSE,157,6.0,-999.0,97,-99.99,,,-99.99,0.000000,,2013-02-11 08:42:00,
2013-02-11 03:52:00,37.0,37.0,-100.00,SSE,157,6.0,-999.0,97,-99.99,,,-99.99,0.000000,,2013-02-11 08:52:00,
2013-02-11 04:00:00,38.0,37.0,-100.00,SSE,157,4.0,-999.0,97,-99.99,,,-99.99,0.000000,,2013-02-11 09:00:00,
2013-02-11 04:42:00,38.0,37.0,-100.00,SSE,157,4.0,-999.0,97,-99.99,,,-99.99,0.000000,,2013-02-11 09:42:00,
2013-02-11 04:52:00,38.0,37.0,-100.00,SSE,157,4.0,-999.0,97,-99.99,,,-99.99,0.000000,,2013-02-11 09:52:00,
2013-02-11 05:00:00,40.0,38.0,-100.00,South,180,8.0,-999.0,92,-99.99,,,-99.99,0.000000,,2013-02-11 10:00:00,
2013-02-11 05:42:00,40.0,38.0,-100.00,South,180,8.0,-999.0,92,-99.99,,,-99.99,0.000000,,2013-02-11 10:42:00,
2013-02-11 05:52:00,40.0,38.0,-100.00,South,180,8.0,-999.0,92,-99.99,,,-99.99,0.000000,,2013-02-11 10:52:00,
2013-02-11 06:00:00,40.0,35.0,-100.00,SSW,202,10.0,-999.0,81,-99.99,,,-99.99,0.000000,,2013-02-11 11:00:00,
2013-02-11 06:42:00,40.0,35.0,-100.00,SSW,202,10.0,-999.0,81,-99.99,,,-99.99,0.000000,,2013-02-11 11:42:00,
2013-02-11 06:52:00,40.0,35.0,-100.00,SSW,202,10.0,-999.0,81,-99.99,,,-99.99,0.000000,,2013-02-11 11:52:00,
2013-02-11 07:00:00,36.0,33.0,-100.00,SW,225,10.0,-999.0,87,0.01,,,-99.99,0.000000,,2013-02-11 12:00:00,
2013-02-11 07:42:00,36.0,33.0,-100.00,SW,225,10.0,-999.0,87,0.01,,,-99.99,0.000000,,2013-02-11 12:42:00,
2013-02-11 07:52:00,36.0,33.0,-100.00,SW,225,10.0,-999.0,87,0.01,,,-99.99,0.000000,,2013-02-11 12:52:00,
2013-02-11 08:00:00,35.0,33.0,-100.00,SSW,202,8.0,-999.0,92,-99.99,,,-99.99,1.160000,,2013-02-11 13:00:00,
2013-02-11 08:42:00,35.0,33.0,-100.00,SSW,202,8.0,-999.0,92,-99.99,,,-99.99,1.160000,,2013-02-11 13:42:00,
2013-02-11 08:52:00,35.0,33.0,-100.00,SSW,202,8.0,-999.0,92,-99.99,,,-99.99,1.160000,,2013-02-11 13:52:00,
2013-02-11 09:00:00,34.0,33.0,-100.00,SW,225,8.0,-999.0,93,0.01,,,-99.99,8.120000,,2013-02-11 14:00:00,
2013-02-11 09:42:00,34.0,33.0,-100.00,SW,225,8.0,-999.0,93,0.01,,,-99.99,8.120000,,2013-02-11 14:42:00,
2013-02-11 09:53:00,34.0,33.0,-100.00,SW,225,8.0,-999.0,93,0.01,,,-99.99,8.120000,,2013-02-11 14:53:00,
2013-02-11 10:00:00,34.0,32.0,-100.00,SW,225,8.0,-999.0,92,-99.99,,,-99.99,19.719999,,2013-02-11 15:00:00,
2013-02-11 10:42:00,34.0,32.0,-100.00,SW,225,8.0,-999.0,92,-99.99,,,-99.99,19.719999,,2013-02-11 15:42:00,
2013-02-11 10:52:00,34.0,32.0,-100.00,SW,225,8.0,-999.0,92,-99.99,,,-99.99,19.719999,,2013-02-11 15:52:00,
2013-02-11 11:00:00,33.0,32.0,-100.00,SSW,202,8.0,-999.0,94,0.02,,,-99.99,40.599998,,2013-02-11 16:00:00,
2013-02-11 11:42:00,33.0,32.0,-100.00,SSW,202,8.0,-999.0,94,0.02,,,-99.99,40.599998,,2013-02-11 16:42:00,
2013-02-11 11:53:00,33.0,32.0,-100.00,SSW,202,8.0,-999.0,94,0.02,,,-99.99,40.599998,,2013-02-11 16:53:00,
2013-02-11 12:00:00,33.0,32.0,-100.00,SW,225,9.0,-999.0,95,0.01,,,-99.99,95.120003,,2013-02-11 17:00:00,
2013-02-11 12:42:00,33.0,32.0,-100.00,SW,225,9.0,-999.0,95,0.01,,,-99.99,95.120003,,2013-02-11 17:42:00,
2013-02-11 12:53:00,33.0,32.0,-100.00,SW,225,9.0,-999.0,95,0.01,,,-99.99,95.120003,,2013-02-11 17:53:00,
2013-02-11 13:00:00,33.0,32.0,-100.00,SW,225,10.0,-999.0,96,0.01,,,-99.99,104.400002,,2013-02-11 18:00:00,
2013-02-11 13:42:00,33.0,32.0,-100.00,SW,225,10.0,-999.0,96,0.01,,,-99.99,104.400002,,2013-02-11 18:42:00,
2013-02-11 13:54:00,33.0,32.0,-100.00,SW,225,10.0,-999.0,96,0.01,,,-99.99,104.400002,,2013-02-11 18:54:00,
2013-02-11 15:00:00,35.0,34.0,-100.00,WSW,247,12.0,-999.0,96,0.01,,,-99.99,53.360001,,2013-02-11 20:00:00,
2013-02-11 15:42:00,35.0,34.0,-100.00,WSW,247,12.0,-999.0,96,0.01,,,-99.99,53.360001,,2013-02-11 20:42:00,
2013-02-11 15:52:00,35.0,34.0,-100.00,WSW,247,12.0,-999.0,96,0.01,,,-99.99,53.360001,,2013-02-11 20:52:00,
2013-02-11 16:00:00,34.0,33.0,-100.00,West,270,13.0,-999.0,95,0.01,,,-99.99,26.680000,,2013-02-11 21:00:00,
2013-02-11 16:42:00,34.0,33.0,-100.00,West,270,13.0,-999.0,95,0.01,,,-99.99,26.680000,,2013-02-11 21:42:00,
2013-02-11 16:52:00,34.0,33.0,-100.00,West,270,13.0,-999.0,95,0.01,,,-99.99,26.680000,,2013-02-11 21:52:00,
2013-02-11 17:00:00,34.0,31.0,-100.00,West,270,13.0,-999.0,90,0.01,,,-99.99,19.719999,,2013-02-11 22:00:00,
2013-02-11 17:42:00,34.0,31.0,-100.00,West,270,13.0,-999.0,90,0.01,,,-99.99,19.719999,,2013-02-11 22:42:00,
2013-02-11 17:52:00,34.0,31.0,-100.00,West,270,13.0,-999.0,90,0.01,,,-99.99,19.719999,,2013-02-11 22:52:00,
2013-02-11 18:00:00,32.0,31.0,-100.00,West,270,14.0,-999.0,97,-99.99,,,-99.99,6.960000,,2013-02-11 23:00:00,
2013-02-11 18:42:00,32.0,31.0,-100.00,West,270,14.0,-999.0,97,-99.99,,,-99.99,6.960000,,2013-02-11 23:42:00,
2013-02-11 18:52:00,32.0,31.0,-100.00,West,270,14.0,-999.0,97,-99.99,,,-99.99,6.960000,,2013-02-11 23:52:00,
2013-02-11 19:00:00,31.0,30.0,-100.00,West,270,13.0,-999.0,97,-99.99,,,-99.99,0.000000,,2013-02-12 00:00:00,
2013-02-11 19:43:00,31.0,30.0,-100.00,West,270,13.0,-999.0,97,-99.99,,,-99.99,0.000000,,2013-02-12 00:43:00,
2013-02-11 19:52:00,31.0,30.0,-100.00,West,270,13.0,-999.0,97,-99.99,,,-99.99,0.000000,,2013-02-12 00:52:00,
2013-02-11 20:00:00,30.0,27.0,-100.00,WNW,292,13.0,-999.0,85,-99.99,,,-99.99,0.000000,,2013-02-12 01:00:00,
2013-02-11 20:42:00,30.0,27.0,-100.00,WNW,292,13.0,-999.0,85,-99.99,,,-99.99,0.000000,,2013-02-12 01:42:00,
2013-02-11 20:52:00,30.0,27.0,-100.00,WNW,292,13.0,-999.0,85,-99.99,,,-99.99,0.000000,,2013-02-12 01:52:00,
2013-02-11 21:00:00,29.0,24.0,-100.00,WSW,247,12.0,-999.0,81,-99.99,,,-99.99,0.000000,,2013-02-12 02:00:00,
2013-02-11 21:42:00,29.0,24.0,-100.00,WSW,247,12.0,-999.0,81,-99.99,,,-99.99,0.000000,,2013-02-12 02:42:00,
2013-02-11 21:53:00,29.0,24.0,-100.00,WSW,247,12.0,-999.0,81,-99.99,,,-99.99,0.000000,,2013-02-12 02:53:00,
2013-02-11 22:00:00,29.0,22.0,-100.00,West,270,11.0,-999.0,75,-99.99,,,-99.99,0.000000,,2013-02-12 03:00:00,
2013-02-11 22:42:00,29.0,22.0,-100.00,West,270,11.0,-999.0,75,-99.99,,,-99.99,0.000000,,2013-02-12 03:42:00,
2013-02-11 22:52:00,29.0,22.0,-100.00,West,270,11.0,-999.0,75,-99.99,,,-99.99,0.000000,,2013-02-12 03:52:00,
2013-02-11 23:00:00,29.0,21.0,-100.00,West,270,11.0,-999.0,71,-99.99,,,-99.99,0.000000,,2013-02-12 04:00:00,
2013-02-11 23:42:00,29.0,21.0,-100.00,West,270,11.0,-999.0,71,-99.99,,,-99.99,0.000000,,2013-02-12 04:42:00,
2013-02-11 23:52:00,29.0,21.0,-100.00,West,270,11.0,-999.0,71,-99.99,,,-99.99,0.000000,,2013-02-12 04:52:00,